createdAt,value
2023-05-14T00:01:58.595Z,38.81
2023-05-14T00:04:26.016Z,38.56
2023-05-14T00:06:53.640Z,38.73
2023-05-14T00:09:21.144Z,38.77
2023-05-14T00:11:48.620Z,38.74
2023-05-14T00:14:16.257Z,38.76
2023-05-14T00:16:43.816Z,38.72
2023-05-14T00:19:11.161Z,38.83
2023-05-14T00:21:39.248Z,38.70
2023-05-14T00:24:06.804Z,38.89
2023-05-14T00:26:34.367Z,38.69
2023-05-14T00:29:01.621Z,38.75
2023-05-14T00:31:29.221Z,38.93
2023-05-14T00:33:56.521Z,38.91
2023-05-14T00:36:24.217Z,38.74
2023-05-14T00:38:51.528Z,38.78
2023-05-14T00:41:19.091Z,38.85
2023-05-14T00:43:46.710Z,38.82
2023-05-14T00:46:14.910Z,38.86
2023-05-14T00:48:42.312Z,38.87
2023-05-14T00:51:09.928Z,38.92
2023-05-14T00:53:37.756Z,38.82
2023-05-14T00:56:06.010Z,38.91
2023-05-14T00:58:33.290Z,38.83
2023-05-14T01:01:01.043Z,38.89
2023-05-14T01:03:30.647Z,38.95
2023-05-14T01:06:13.476Z,39.06
2023-05-14T01:08:46.657Z,38.87
2023-05-14T01:11:36.347Z,38.91
2023-05-14T01:14:23.137Z,38.99
2023-05-14T01:16:56.666Z,38.96
2023-05-14T01:19:42.534Z,38.93
2023-05-14T01:22:11.272Z,38.82
2023-05-14T01:24:39.542Z,38.89
2023-05-14T01:27:18.505Z,39.01
2023-05-14T01:29:53.288Z,38.93
2023-05-14T01:32:26.626Z,38.90
2023-05-14T01:34:57.152Z,38.97
2023-05-14T01:37:27.093Z,38.88
2023-05-14T01:39:56.436Z,38.93
2023-05-14T01:42:24.155Z,38.98
2023-05-14T01:44:51.649Z,38.92
2023-05-14T01:47:19.656Z,38.94
2023-05-14T01:49:46.949Z,38.97
2023-05-14T01:52:14.462Z,39.07
2023-05-14T01:54:41.871Z,39.10
2023-05-14T01:57:09.390Z,38.90
2023-05-14T01:59:36.713Z,38.93
2023-05-14T02:02:04.576Z,39.03
2023-05-14T02:04:32.226Z,39.11
2023-05-14T02:06:59.768Z,38.95
2023-05-14T02:09:27.118Z,39.07
2023-05-14T02:11:55.310Z,38.96
2023-05-14T02:14:22.662Z,39.05
2023-05-14T02:16:51.361Z,39.06
2023-05-14T02:19:18.849Z,39.04
2023-05-14T02:21:47.112Z,39.11
2023-05-14T02:24:14.443Z,39.00
2023-05-14T02:26:42.328Z,39.04
2023-05-14T02:29:09.894Z,39.17
2023-05-14T02:31:37.884Z,39.10
2023-05-14T02:34:06.609Z,39.08
2023-05-14T02:36:34.791Z,39.06
2023-05-14T02:39:02.165Z,38.97
2023-05-14T02:41:29.876Z,39.13
2023-05-14T02:43:57.136Z,39.14
2023-05-14T02:46:24.902Z,39.13
2023-05-14T02:48:52.367Z,39.13
2023-05-14T02:51:21.069Z,39.15
2023-05-14T02:53:48.571Z,39.34
2023-05-14T02:56:16.491Z,39.00
2023-05-14T02:58:43.779Z,39.01
2023-05-14T03:01:11.376Z,39.10
2023-05-14T03:03:39.903Z,39.14
2023-05-14T03:06:08.047Z,38.99
2023-05-14T03:08:35.418Z,39.02
2023-05-14T03:11:03.321Z,39.15
2023-05-14T03:13:30.788Z,39.00
2023-05-14T03:15:58.321Z,39.11
2023-05-14T03:18:28.210Z,39.18
2023-05-14T03:20:55.814Z,39.17
2023-05-14T03:23:23.243Z,39.09
2023-05-14T03:25:51.014Z,39.07
2023-05-14T03:28:18.340Z,39.15
2023-05-14T03:30:46.089Z,39.22
2023-05-14T03:33:13.515Z,39.01
2023-05-14T03:35:41.088Z,39.16
2023-05-14T03:38:08.580Z,38.98
2023-05-14T03:40:36.137Z,39.01
2023-05-14T03:43:03.472Z,39.17
2023-05-14T03:45:32.148Z,39.11
2023-05-14T03:47:59.651Z,38.93
2023-05-14T03:50:27.584Z,39.28
2023-05-14T03:52:55.099Z,39.16
2023-05-14T03:55:22.758Z,39.04
2023-05-14T03:57:50.318Z,39.10
2023-05-14T04:00:18.080Z,38.99
2023-05-14T04:02:45.536Z,39.06
2023-05-14T04:05:13.143Z,39.07
2023-05-14T04:07:40.598Z,38.90
2023-05-14T04:10:08.716Z,38.95
2023-05-14T04:12:36.054Z,39.12
2023-05-14T04:15:03.994Z,38.93
2023-05-14T04:17:31.299Z,38.94
2023-05-14T04:19:58.878Z,39.00
2023-05-14T04:22:26.129Z,38.94
2023-05-14T04:24:53.690Z,38.86
2023-05-14T04:27:21.585Z,39.00
2023-05-14T04:29:50.752Z,39.03
2023-05-14T04:32:18.285Z,39.07
2023-05-14T04:34:47.215Z,39.03
2023-05-14T04:37:14.456Z,39.05
2023-05-14T04:39:42.450Z,39.10
2023-05-14T04:42:09.864Z,39.08
2023-05-14T04:44:40.524Z,39.12
2023-05-14T04:47:07.899Z,38.99
2023-05-14T04:49:35.589Z,39.10
2023-05-14T04:52:02.941Z,38.96
2023-05-14T04:54:30.410Z,39.04
2023-05-14T04:56:57.878Z,39.04
2023-05-14T04:59:26.020Z,39.00
2023-05-14T05:01:53.374Z,39.04
2023-05-14T05:04:21.036Z,38.95
2023-05-14T05:06:48.322Z,39.14
2023-05-14T05:09:17.626Z,39.01
2023-05-14T05:11:44.966Z,39.12
2023-05-14T05:14:12.518Z,38.88
2023-05-14T05:16:39.879Z,39.11
2023-05-14T05:19:07.394Z,38.97
2023-05-14T05:21:35.185Z,39.00
2023-05-14T05:24:02.815Z,38.91
2023-05-14T05:26:30.197Z,38.99
2023-05-14T05:28:57.714Z,39.14
2023-05-14T05:31:25.193Z,38.85
2023-05-14T05:33:52.847Z,39.03
2023-05-14T05:36:20.188Z,39.22
2023-05-14T05:38:47.936Z,39.36
2023-05-14T05:41:15.395Z,39.30
2023-05-14T05:43:42.956Z,39.33
2023-05-14T05:46:10.455Z,39.39
2023-05-14T05:48:37.985Z,39.27
2023-05-14T05:51:05.635Z,39.37
2023-05-14T05:53:33.221Z,39.27
2023-05-14T05:56:00.541Z,39.34
2023-05-14T05:58:28.093Z,39.40
2023-05-14T06:00:57.565Z,39.36
2023-05-14T06:03:25.464Z,39.38
2023-05-14T06:05:52.984Z,39.38
2023-05-14T06:08:20.770Z,39.44
2023-05-14T06:10:48.069Z,39.41
2023-05-14T06:13:15.779Z,39.41
2023-05-14T06:15:43.174Z,39.42
2023-05-14T06:18:10.730Z,39.48
2023-05-14T06:20:38.323Z,39.44
2023-05-14T06:23:06.062Z,39.42
2023-05-14T06:25:33.640Z,39.49
2023-05-14T06:28:01.529Z,39.28
2023-05-14T06:30:28.922Z,39.54
2023-05-14T06:32:56.774Z,39.39
2023-05-14T06:35:24.085Z,39.50
2023-05-14T06:37:51.899Z,39.40
2023-05-14T06:40:20.943Z,39.49
2023-05-14T06:42:48.918Z,39.50
2023-05-14T06:45:16.264Z,39.48
2023-05-14T06:47:43.842Z,39.51
2023-05-14T06:50:11.277Z,39.46
2023-05-14T06:52:39.177Z,39.38
2023-05-14T06:55:06.992Z,39.56
2023-05-14T06:57:34.682Z,39.53
2023-05-14T07:00:03.635Z,39.72
2023-05-14T07:02:31.570Z,39.59
2023-05-14T07:04:59.053Z,39.61
2023-05-14T07:07:26.620Z,39.69
2023-05-14T07:09:54.007Z,39.76
2023-05-14T07:12:21.519Z,39.70
2023-05-14T07:14:48.975Z,39.78
2023-05-14T07:17:16.690Z,39.67
2023-05-14T07:19:44.326Z,39.95
2023-05-14T07:22:11.891Z,39.88
2023-05-14T07:24:39.267Z,39.69
2023-05-14T07:27:06.900Z,39.90
2023-05-14T07:29:35.068Z,39.89
2023-05-14T07:32:04.792Z,39.95
2023-05-14T07:34:32.467Z,40.00
2023-05-14T07:37:00.818Z,39.90
2023-05-14T07:39:28.239Z,39.90
2023-05-14T07:41:55.873Z,40.01
2023-05-14T07:44:23.160Z,39.98
2023-05-14T07:46:50.724Z,39.99
2023-05-14T07:49:18.779Z,40.20
2023-05-14T07:51:46.385Z,40.08
2023-05-14T07:54:13.646Z,40.11
2023-05-14T07:56:41.317Z,40.07
2023-05-14T07:59:08.605Z,40.19
2023-05-14T08:01:39.040Z,40.13
2023-05-14T08:04:06.891Z,40.12
2023-05-14T08:06:34.654Z,40.15
2023-05-14T08:09:01.920Z,40.02
2023-05-14T08:11:29.462Z,40.11
2023-05-14T08:13:57.195Z,40.23
2023-05-14T08:16:26.131Z,40.17
2023-05-14T08:18:53.469Z,40.18
2023-05-14T08:21:21.122Z,40.20
2023-05-14T08:23:48.428Z,39.82
2023-05-14T08:26:16.049Z,40.07
2023-05-14T08:28:43.350Z,40.15
2023-05-14T08:31:11.350Z,40.13
2023-05-14T08:33:39.107Z,40.12
2023-05-14T08:36:07.393Z,40.13
2023-05-14T08:38:34.820Z,40.15
2023-05-14T08:41:05.838Z,39.92
2023-05-14T08:44:12.560Z,39.87
2023-05-14T08:46:41.032Z,39.92
2023-05-14T08:49:47.520Z,39.94
2023-05-14T08:52:17.963Z,39.69
2023-05-14T08:54:48.123Z,39.85
2023-05-14T08:57:18.003Z,40.03
2023-05-14T08:59:45.651Z,39.92
2023-05-14T09:02:15.206Z,39.85
2023-05-14T09:04:42.874Z,39.90
2023-05-14T09:07:11.377Z,39.80
2023-05-14T09:09:38.810Z,39.85
2023-05-14T09:12:06.791Z,39.87
2023-05-14T09:14:34.078Z,39.88
2023-05-14T09:17:02.395Z,39.92
2023-05-14T09:19:29.711Z,39.78
2023-05-14T09:21:59.176Z,39.81
2023-05-14T09:24:30.773Z,39.90
2023-05-14T09:26:58.935Z,40.08
2023-05-14T09:29:28.462Z,39.96
2023-05-14T09:31:57.400Z,39.96
2023-05-14T09:34:24.831Z,39.87
2023-05-14T09:36:57.868Z,40.11
2023-05-14T09:39:26.340Z,40.14
2023-05-14T09:41:54.318Z,40.30
2023-05-14T09:44:22.753Z,40.15
2023-05-14T09:46:51.236Z,40.24
2023-05-14T09:49:18.876Z,40.39
2023-05-14T09:51:46.609Z,40.25
2023-05-14T09:54:14.795Z,40.31
2023-05-14T09:56:43.444Z,40.26
2023-05-14T09:59:11.188Z,40.43
2023-05-14T10:01:42.375Z,40.25
2023-05-14T10:04:10.952Z,40.35
2023-05-14T10:06:40.097Z,40.39
2023-05-14T10:09:13.340Z,40.15
2023-05-14T10:11:44.519Z,40.14
2023-05-14T10:14:27.088Z,39.98
2023-05-14T10:16:58.721Z,40.07
2023-05-14T10:19:26.683Z,40.07
2023-05-14T10:22:04.208Z,40.10
2023-05-14T10:24:32.400Z,40.05
2023-05-14T10:27:00.659Z,40.04
2023-05-14T10:29:35.347Z,39.81
2023-05-14T10:32:06.907Z,40.00
2023-05-14T10:34:43.844Z,40.06
2023-05-14T10:37:14.059Z,39.91
2023-05-14T10:39:44.350Z,39.91
2023-05-14T10:42:16.346Z,39.92
2023-05-14T10:44:55.922Z,39.89
2023-05-14T10:47:23.913Z,39.90
2023-05-14T10:49:55.192Z,39.93
2023-05-14T10:52:25.566Z,39.78
2023-05-14T10:54:54.942Z,39.77
2023-05-14T10:57:24.944Z,39.80
2023-05-14T10:59:55.336Z,39.75
2023-05-14T11:02:33.602Z,39.89
2023-05-14T11:05:09.243Z,39.72
2023-05-14T11:07:43.693Z,39.60
2023-05-14T11:10:13.572Z,39.74
2023-05-14T11:12:43.244Z,39.75
2023-05-14T11:15:12.858Z,39.73
2023-05-14T11:17:42.243Z,39.75
2023-05-14T11:20:11.152Z,39.69
2023-05-14T11:22:40.170Z,39.71
2023-05-14T11:25:08.806Z,39.72
2023-05-14T11:27:38.362Z,39.78
2023-05-14T11:30:12.313Z,39.66
2023-05-14T11:32:40.181Z,39.44
2023-05-14T11:35:08.354Z,39.55
2023-05-14T11:37:35.719Z,39.52
2023-05-14T11:40:09.785Z,39.50
2023-05-14T11:42:37.501Z,39.41
2023-05-14T11:45:05.880Z,39.44
2023-05-14T11:47:33.150Z,39.29
2023-05-14T11:50:01.088Z,39.39
2023-05-14T11:52:28.380Z,39.23
2023-05-14T11:54:56.027Z,39.20
2023-05-14T11:57:23.456Z,39.22
2023-05-14T11:59:58.859Z,39.24
2023-05-14T12:02:29.178Z,39.26
2023-05-14T12:04:57.559Z,39.20
2023-05-14T12:07:29.160Z,39.06
2023-05-14T12:10:01.558Z,39.14
2023-05-14T12:12:35.665Z,39.00
2023-05-14T12:15:11.400Z,39.20
2023-05-14T12:17:39.515Z,39.09
2023-05-14T12:20:12.243Z,39.06
2023-05-14T12:22:42.314Z,39.05
2023-05-14T12:25:13.831Z,39.24
2023-05-14T12:27:41.391Z,38.92
2023-05-14T12:32:41.158Z,39.15
2023-05-14T12:35:10.135Z,39.06
2023-05-14T12:37:39.787Z,38.99
2023-05-14T12:40:10.669Z,39.06
2023-05-14T12:42:37.953Z,39.14
2023-05-14T12:45:07.988Z,38.95
2023-05-14T12:47:49.111Z,39.11
2023-05-14T12:50:16.678Z,39.07
2023-05-14T12:52:44.011Z,39.07
2023-05-14T12:55:11.485Z,38.99
2023-05-14T12:57:39.610Z,39.09
2023-05-14T13:00:12.975Z,38.98
2023-05-14T13:02:42.609Z,39.24
2023-05-14T13:05:12.335Z,39.02
2023-05-14T13:07:39.715Z,39.15
2023-05-14T13:10:08.119Z,39.28
2023-05-14T13:12:35.473Z,39.20
2023-05-14T13:15:03.682Z,39.11
2023-05-14T13:17:31.057Z,39.21
2023-05-14T13:19:58.645Z,39.31
2023-05-14T13:22:25.933Z,39.25
2023-05-14T13:24:53.483Z,39.30
2023-05-14T13:27:20.744Z,39.44
2023-05-14T13:29:48.299Z,39.10
2023-05-14T13:32:15.642Z,39.39
2023-05-14T13:34:44.075Z,39.36
2023-05-14T13:37:11.513Z,39.50
2023-05-14T13:39:39.817Z,39.26
2023-05-14T13:42:08.398Z,39.44
2023-05-14T13:44:36.194Z,39.15
2023-05-14T13:47:03.874Z,39.40
2023-05-14T13:49:31.358Z,39.46
2023-05-14T13:51:58.789Z,39.51
2023-05-14T13:54:26.357Z,39.30
2023-05-14T13:56:53.588Z,39.45
2023-05-14T13:59:21.176Z,39.28
2023-05-14T14:01:49.813Z,39.42
2023-05-14T14:04:17.714Z,39.26
2023-05-14T14:06:45.331Z,39.37
2023-05-14T14:09:13.783Z,39.47
2023-05-14T14:11:41.275Z,39.46
2023-05-14T14:14:08.836Z,39.47
2023-05-14T14:16:36.319Z,39.50
2023-05-14T14:19:03.969Z,39.48
2023-05-14T14:21:31.787Z,39.54
2023-05-14T14:23:59.437Z,39.52
2023-05-14T14:26:28.303Z,39.61
2023-05-14T14:28:55.818Z,39.65
2023-05-14T14:31:23.970Z,39.53
2023-05-14T14:33:52.196Z,39.58
2023-05-14T14:36:19.408Z,39.58
2023-05-14T14:38:46.903Z,39.70
2023-05-14T14:41:14.219Z,39.69
2023-05-14T14:43:42.147Z,39.71
2023-05-14T14:46:09.771Z,39.53
2023-05-14T14:48:37.784Z,39.73
2023-05-14T14:51:06.903Z,39.68
2023-05-14T14:53:36.208Z,39.68
2023-05-14T14:56:04.291Z,39.70
2023-05-14T14:58:32.107Z,39.80
2023-05-14T15:01:01.314Z,39.55
2023-05-14T15:03:29.312Z,39.72
2023-05-14T15:05:56.760Z,39.68
2023-05-14T15:08:28.635Z,39.75
2023-05-14T15:10:56.556Z,39.62
2023-05-14T15:13:25.064Z,39.60
2023-05-14T15:15:55.082Z,39.71
2023-05-14T15:18:22.621Z,39.69
2023-05-14T15:20:49.984Z,39.72
2023-05-14T15:23:17.618Z,39.59
2023-05-14T15:25:45.376Z,39.64
2023-05-14T15:28:12.921Z,39.81
2023-05-14T15:30:40.151Z,39.72
2023-05-14T15:33:08.705Z,39.56
2023-05-14T15:35:36.566Z,39.60
2023-05-14T15:38:04.275Z,39.58
2023-05-14T15:40:33.057Z,39.62
2023-05-14T15:43:00.733Z,39.52
2023-05-14T15:45:28.317Z,39.60
2023-05-14T15:47:56.068Z,39.65
2023-05-14T15:50:23.716Z,39.76
2023-05-14T15:52:51.470Z,39.63
2023-05-14T15:55:18.945Z,39.52
2023-05-14T15:57:46.513Z,39.42
2023-05-14T16:00:14.410Z,39.52
2023-05-14T16:02:45.087Z,39.66
2023-05-14T16:05:13.843Z,39.66
2023-05-14T16:07:42.765Z,39.31
2023-05-14T16:10:10.408Z,39.63
2023-05-14T16:12:37.990Z,39.62
2023-05-14T16:15:07.210Z,39.68
2023-05-14T16:17:35.071Z,39.37
2023-05-14T16:20:04.705Z,39.44
2023-05-14T16:22:36.170Z,39.58
2023-05-14T16:25:04.929Z,39.62
2023-05-14T16:27:32.669Z,39.54
2023-05-14T16:30:00.227Z,39.54
2023-05-14T16:32:28.004Z,39.75
2023-05-14T16:34:56.527Z,39.77
2023-05-14T16:37:24.256Z,39.71
2023-05-14T16:39:51.697Z,39.94
2023-05-14T16:42:19.218Z,39.80
2023-05-14T16:44:46.491Z,39.90
2023-05-14T16:47:14.031Z,39.77
2023-05-14T16:49:41.326Z,39.75
2023-05-14T16:52:08.804Z,39.74
2023-05-14T16:54:36.640Z,39.75
2023-05-14T16:57:04.927Z,39.78
2023-05-14T16:59:32.187Z,39.83
2023-05-14T17:01:59.835Z,39.76
2023-05-14T17:04:27.229Z,39.72
2023-05-14T17:06:57.185Z,39.79
2023-05-14T17:09:24.732Z,39.69
2023-05-14T17:11:52.262Z,39.92
2023-05-14T17:14:19.938Z,40.04
2023-05-14T17:16:47.545Z,39.95
2023-05-14T17:19:15.490Z,39.96
2023-05-14T17:21:43.073Z,39.88
2023-05-14T17:24:10.348Z,39.77
2023-05-14T17:26:37.969Z,39.93
2023-05-14T17:29:05.488Z,39.83
2023-05-14T17:31:33.056Z,39.91
2023-05-14T17:34:00.736Z,40.02
2023-05-14T17:36:28.677Z,40.09
2023-05-14T17:38:55.953Z,39.99
2023-05-14T17:41:23.557Z,40.08
2023-05-14T17:43:52.474Z,39.99
2023-05-14T17:46:21.276Z,39.95
2023-05-14T17:48:48.609Z,39.98
2023-05-14T17:51:16.345Z,40.08
2023-05-14T17:53:43.601Z,40.06
2023-05-14T17:56:11.315Z,40.04
2023-05-14T17:58:38.618Z,40.11
2023-05-14T18:01:06.551Z,40.10
2023-05-14T18:03:34.229Z,40.05
2023-05-14T18:06:01.816Z,40.07
2023-05-14T18:08:29.104Z,40.01
2023-05-14T18:10:58.031Z,40.27
2023-05-14T18:13:25.284Z,40.29
2023-05-14T18:15:54.265Z,40.32
2023-05-14T18:18:23.553Z,40.49
2023-05-14T18:20:51.941Z,40.62
2023-05-14T18:23:19.392Z,40.81
2023-05-14T18:25:47.938Z,40.56
2023-05-14T18:28:15.732Z,40.92
2023-05-14T18:30:45.242Z,40.82
2023-05-14T18:33:12.940Z,40.86
2023-05-14T18:35:43.461Z,41.02
2023-05-14T18:38:11.872Z,40.94
2023-05-14T18:40:39.494Z,41.04
2023-05-14T18:43:06.963Z,41.21
2023-05-14T18:45:34.668Z,41.10
2023-05-14T18:48:02.387Z,40.98
2023-05-14T18:50:30.670Z,41.53
2023-05-14T18:52:57.976Z,41.52
2023-05-14T18:55:26.171Z,41.60
2023-05-14T18:57:53.761Z,41.77
2023-05-14T19:00:21.317Z,42.06
2023-05-14T19:02:48.651Z,42.33
2023-05-14T19:05:16.448Z,42.42
2023-05-14T19:07:43.911Z,42.56
2023-05-14T19:10:11.623Z,42.49
2023-05-14T19:12:38.925Z,42.69
2023-05-14T19:15:07.472Z,42.77
2023-05-14T19:17:34.912Z,42.64
2023-05-14T19:20:02.609Z,42.95
2023-05-14T19:22:29.875Z,43.06
2023-05-14T19:24:57.357Z,43.22
2023-05-14T19:27:24.680Z,43.64
2023-05-14T19:29:52.220Z,45.40
2023-05-14T19:32:19.505Z,45.98
2023-05-14T19:34:47.671Z,45.61
2023-05-14T19:37:15.945Z,44.46
2023-05-14T19:39:43.467Z,43.96
2023-05-14T19:42:10.714Z,43.74
2023-05-14T19:44:38.249Z,44.02
2023-05-14T19:47:06.039Z,43.93
2023-05-14T19:49:34.003Z,44.02
2023-05-14T19:52:01.297Z,44.01
2023-05-14T19:54:31.552Z,44.10
2023-05-14T19:56:59.332Z,44.30
2023-05-14T19:59:26.873Z,44.46
2023-05-14T20:01:55.751Z,44.52
2023-05-14T20:04:26.047Z,44.58
2023-05-14T20:06:53.451Z,44.80
2023-05-14T20:09:21.139Z,44.87
2023-05-14T20:11:48.446Z,44.87
2023-05-14T20:14:16.031Z,44.98
2023-05-14T20:16:43.597Z,44.95
2023-05-14T20:19:11.973Z,45.37
2023-05-14T20:21:39.423Z,45.12
2023-05-14T20:24:07.044Z,45.53
2023-05-14T20:26:34.684Z,45.38
2023-05-14T20:29:02.336Z,45.41
2023-05-14T20:31:29.638Z,45.51
2023-05-14T20:33:57.159Z,45.41
2023-05-14T20:36:24.495Z,45.56
2023-05-14T20:38:52.705Z,45.81
2023-05-14T20:41:19.946Z,45.75
2023-05-14T20:43:47.423Z,45.85
2023-05-14T20:46:15.160Z,45.92
2023-05-14T20:48:42.766Z,45.71
2023-05-14T20:51:10.025Z,45.97
2023-05-14T20:53:39.107Z,45.90
2023-05-14T20:56:06.829Z,46.21
2023-05-14T20:58:35.223Z,46.00
2023-05-14T21:01:03.670Z,46.10
2023-05-14T21:03:31.382Z,46.34
2023-05-14T21:06:00.507Z,46.35
2023-05-14T21:08:28.530Z,46.51
2023-05-14T21:10:55.793Z,46.41
2023-05-14T21:13:23.332Z,46.67
2023-05-14T21:15:50.665Z,46.46
2023-05-14T21:18:18.197Z,46.51
2023-05-14T21:20:45.583Z,46.29
2023-05-14T21:23:13.731Z,46.49
2023-05-14T21:25:41.125Z,46.48
2023-05-14T21:28:08.616Z,46.52
2023-05-14T21:30:35.851Z,46.73
2023-05-14T21:33:04.871Z,46.81
2023-05-14T21:35:32.224Z,46.76
2023-05-14T21:37:59.774Z,46.92
2023-05-14T21:40:27.064Z,46.84
2023-05-14T21:42:55.010Z,46.97
2023-05-14T21:45:23.637Z,46.84
2023-05-14T21:47:51.524Z,46.95
2023-05-14T21:50:18.826Z,46.84
2023-05-14T21:52:47.065Z,46.85
2023-05-14T21:55:14.364Z,46.35
2023-05-14T21:57:42.247Z,46.94
2023-05-14T22:00:12.837Z,47.07
2023-05-14T22:02:40.684Z,46.96
2023-05-14T22:05:08.155Z,46.98
2023-05-14T22:07:35.737Z,47.10
2023-05-14T22:10:03.152Z,47.03
2023-05-14T22:12:31.276Z,47.02
2023-05-14T22:14:58.472Z,47.18
2023-05-14T22:17:28.138Z,47.12
2023-05-14T22:19:55.623Z,47.17
2023-05-14T22:22:23.105Z,47.09
2023-05-14T22:24:50.338Z,47.33
2023-05-14T22:27:18.233Z,47.23
2023-05-14T22:29:45.668Z,47.39
2023-05-14T22:32:13.188Z,47.31
2023-05-14T22:34:40.436Z,47.27
2023-05-14T22:37:08.110Z,47.32
2023-05-14T22:39:35.682Z,47.24
2023-05-14T22:42:03.322Z,47.37
2023-05-14T22:44:30.732Z,47.39
2023-05-14T22:46:58.328Z,47.30
2023-05-14T22:49:25.619Z,47.48
2023-05-14T22:51:54.241Z,47.51
2023-05-14T22:54:21.547Z,47.48
2023-05-14T22:56:49.089Z,47.46
2023-05-14T22:59:16.381Z,47.39
2023-05-14T23:01:43.945Z,47.67
2023-05-14T23:04:11.433Z,47.64
2023-05-14T23:06:38.942Z,47.57
2023-05-14T23:09:06.169Z,47.58
2023-05-14T23:11:33.743Z,47.66
2023-05-14T23:14:01.191Z,47.75
2023-05-14T23:16:29.879Z,47.69
2023-05-14T23:18:57.328Z,47.56
2023-05-14T23:21:24.992Z,47.54
2023-05-14T23:23:52.266Z,47.67
2023-05-14T23:26:19.858Z,47.54
2023-05-14T23:28:47.386Z,47.42
2023-05-14T23:31:14.920Z,47.53
2023-05-14T23:33:44.462Z,47.60
2023-05-14T23:36:12.137Z,47.68
2023-05-14T23:38:40.127Z,47.72
2023-05-14T23:41:07.759Z,47.48
2023-05-14T23:43:35.052Z,47.70
2023-05-14T23:46:02.748Z,47.73
2023-05-14T23:48:30.640Z,47.67
2023-05-14T23:50:58.152Z,47.59
2023-05-14T23:53:25.544Z,47.73
2023-05-14T23:55:53.221Z,47.68
2023-05-14T23:58:20.711Z,47.68
